Time;durP1;ratioP1;P1;durP2;ratioP2;P2;SDS_P1;SDS_P2;PMS_P1;PMS_P2;Temp;Humidity;BMP_temperature;BMP_pressure;BME280_temperature;BME280_humidity;BME280_pressure;Samples;Min_cycle;Max_cycle;Signal;HPM_P1;HPM_P2
2021/03/11 00:00:29;;;;;;;34.08;26.00;;;8.10;88.00;;;;;;4999081;28;20452;-78
2021/03/11 00:02:55;;;;;;;36.53;27.25;;;8.10;88.00;;;;;;4998347;28;20018;-76
2021/03/11 00:05:20;;;;;;;34.95;26.88;;;8.20;88.00;;;;;;4997148;28;20045;-73
2021/03/11 00:07:46;;;;;;;33.38;26.10;;;8.20;88.00;;;;;;4995785;28;20053;-75
2021/03/11 00:10:13;;;;;;;34.55;26.27;;;8.30;87.90;;;;;;5001407;28;20434;-76
2021/03/11 00:12:41;;;;;;;31.23;24.90;;;8.30;87.90;;;;;;5001367;28;20042;-75
2021/03/11 00:15:15;;;;;;;34.70;26.98;;;8.40;87.80;;;;;;4997464;28;20069;-81
2021/03/11 00:17:41;;;;;;;36.50;27.77;;;8.30;87.70;;;;;;5000208;28;20433;-74
2021/03/11 00:20:13;;;;;;;36.13;27.40;;;8.40;87.70;;;;;;4997914;28;20026;-74
2021/03/11 00:22:39;;;;;;;36.47;28.90;;;8.40;87.80;;;;;;5012932;28;20117;-77
2021/03/11 00:25:09;;;;;;;39.53;28.70;;;8.40;87.90;;;;;;4994607;28;20053;-73
2021/03/11 00:27:35;;;;;;;35.70;27.77;;;8.40;87.80;;;;;;4998134;28;20060;-75
2021/03/11 00:30:03;;;;;;;37.22;27.52;;;8.50;88.00;;;;;;4996998;28;21641;-74
2021/03/11 00:32:28;;;;;;;40.47;29.20;;;8.50;88.10;;;;;;4997395;28;20029;-75
2021/03/11 00:34:54;;;;;;;38.85;30.42;;;8.50;88.30;;;;;;4998600;28;20037;-74
2021/03/11 00:37:20;;;;;;;40.88;31.23;;;8.50;88.50;;;;;;5019126;28;20372;-73
2021/03/11 00:39:45;;;;;;;38.50;29.13;;;8.50;88.50;;;;;;4995277;28;20325;-75
2021/03/11 00:42:11;;;;;;;39.47;29.20;;;8.50;88.70;;;;;;4997525;28;20025;-73
2021/03/11 00:44:37;;;;;;;38.55;28.42;;;8.50;88.70;;;;;;4999847;28;20030;-73
2021/03/11 00:47:05;;;;;;;40.60;30.08;;;8.50;88.60;;;;;;4998951;28;20124;-73
2021/03/11 00:49:31;;;;;;;38.78;28.83;;;8.50;88.60;;;;;;4995955;28;20125;-78
2021/03/11 00:51:57;;;;;;;39.20;29.67;;;8.60;88.60;;;;;;4996591;28;20522;-74
2021/03/11 00:54:23;;;;;;;40.55;29.42;;;8.60;88.50;;;;;;4997660;28;20033;-73
2021/03/11 00:56:48;;;;;;;40.10;29.13;;;8.60;88.40;;;;;;5001004;28;20690;-73
2021/03/11 00:59:15;;;;;;;38.78;28.67;;;8.60;88.30;;;;;;4996920;28;20125;-73
2021/03/11 01:01:41;;;;;;;40.22;29.08;;;8.60;88.30;;;;;;4998719;28;20542;-73
2021/03/11 01:04:06;;;;;;;36.83;27.35;;;8.60;88.10;;;;;;4998051;28;20026;-79
2021/03/11 01:06:33;;;;;;;37.05;27.30;;;8.70;88.00;;;;;;4997512;28;20041;-73
2021/03/11 01:08:58;;;;;;;36.78;27.35;;;8.70;87.90;;;;;;5006240;28;20456;-75
2021/03/11 01:11:24;;;;;;;37.00;27.65;;;8.70;87.90;;;;;;5002323;28;20040;-76
2021/03/11 01:13:50;;;;;;;36.58;27.58;;;8.70;87.80;;;;;;5001603;28;20076;-76
2021/03/11 01:16:16;;;;;;;37.05;27.67;;;8.80;87.70;;;;;;4994937;28;20041;-73
2021/03/11 01:18:41;;;;;;;36.90;27.77;;;8.80;87.80;;;;;;5008341;28;20061;-74
2021/03/11 01:21:07;;;;;;;38.33;28.95;;;8.80;87.80;;;;;;4994680;28;20033;-78
2021/03/11 01:23:33;;;;;;;35.63;28.27;;;8.80;87.90;;;;;;4997140;28;20510;-73
2021/03/11 01:25:59;;;;;;;37.67;28.58;;;8.80;88.10;;;;;;4998325;28;20117;-73
2021/03/11 01:28:24;;;;;;;43.63;29.27;;;8.80;88.30;;;;;;4994919;28;20367;-73
2021/03/11 01:30:50;;;;;;;38.92;28.25;;;8.80;88.40;;;;;;4996834;28;20022;-76
2021/03/11 01:33:16;;;;;;;37.75;29.48;;;8.80;88.50;;;;;;4989986;28;20037;-74
2021/03/11 01:35:41;;;;;;;35.55;27.40;;;8.80;88.60;;;;;;4996249;28;20030;-75
2021/03/11 01:38:07;;;;;;;35.95;27.92;;;8.80;88.70;;;;;;4994248;28;20030;-73
2021/03/11 01:40:34;;;;;;;40.85;28.80;;;8.90;88.80;;;;;;4994244;28;20121;-79
2021/03/11 01:43:00;;;;;;;37.67;28.02;;;8.80;88.90;;;;;;4995313;28;20034;-73
2021/03/11 01:45:26;;;;;;;38.58;27.95;;;8.80;89.00;;;;;;4995660;28;20041;-74
2021/03/11 01:47:52;;;;;;;39.15;29.02;;;8.80;89.20;;;;;;4996392;28;20045;-72
2021/03/11 01:50:18;;;;;;;35.15;26.48;;;8.80;89.20;;;;;;5009147;28;20061;-74
2021/03/11 01:52:44;;;;;;;40.38;26.83;;;8.80;89.40;;;;;;4993464;28;20397;-73
2021/03/11 01:55:11;;;;;;;37.47;27.08;;;8.80;89.40;;;;;;5003457;28;20159;-75
2021/03/11 01:57:37;;;;;;;35.55;26.52;;;8.80;89.50;;;;;;5006890;28;20477;-74
2021/03/11 02:00:09;;;;;;;35.65;26.65;;;8.80;89.60;;;;;;5004335;28;20125;-78
2021/03/11 02:02:35;;;;;;;34.53;25.48;;;8.80;89.70;;;;;;5008016;28;20358;-73
2021/03/11 02:05:04;;;;;;;33.92;25.80;;;8.80;89.60;;;;;;4994523;28;20038;-77
2021/03/11 02:07:30;;;;;;;33.10;23.73;;;8.90;89.60;;;;;;4993947;28;20042;-81
2021/03/11 02:09:56;;;;;;;33.92;24.40;;;8.90;89.50;;;;;;4996490;28;20031;-74
2021/03/11 02:12:21;;;;;;;35.58;25.13;;;8.90;89.30;;;;;;4997319;28;20032;-74
2021/03/11 02:15:02;;;;;;;31.58;23.67;;;9.00;89.30;;;;;;4994150;28;20041;-74
2021/03/11 02:17:33;;;;;;;34.78;24.52;;;9.00;89.20;;;;;;4994022;28;20554;-75
2021/03/11 02:20:35;;;;;;;32.00;23.75;;;9.10;89.20;;;;;;5008034;28;20593;-73
2021/03/11 02:23:40;;;;;;;32.17;23.80;;;9.10;89.10;;;;;;4994935;28;20030;-74
2021/03/11 02:26:24;;;;;;;33.05;23.00;;;9.10;89.20;;;;;;4994909;28;20025;-75
2021/03/11 02:29:05;;;;;;;34.05;22.60;;;9.00;89.50;;;;;;4997104;28;20050;-75
2021/03/11 02:31:33;;;;;;;31.60;24.05;;;9.10;89.60;;;;;;4994061;28;20045;-73
2021/03/11 02:34:03;;;;;;;33.75;23.35;;;9.00;89.70;;;;;;4996136;28;20030;-74
2021/03/11 02:36:30;;;;;;;29.52;21.35;;;9.10;89.70;;;;;;4994672;28;20038;-73
2021/03/11 02:38:57;;;;;;;33.35;24.13;;;9.00;89.80;;;;;;5004232;28;20469;-73
2021/03/11 02:41:25;;;;;;;29.15;21.70;;;9.10;89.80;;;;;;5017925;28;20152;-73
2021/03/11 02:43:51;;;;;;;32.92;23.15;;;9.10;89.60;;;;;;4998764;28;20045;-73
2021/03/11 02:46:20;;;;;;;31.23;22.02;;;9.10;89.40;;;;;;4997686;28;20034;-82
2021/03/11 02:48:49;;;;;;;31.60;22.30;;;9.10;89.30;;;;;;4994479;28;20050;-74
2021/03/11 02:51:16;;;;;;;29.77;21.65;;;9.20;89.20;;;;;;4991355;28;20117;-73
2021/03/11 02:53:42;;;;;;;29.30;20.83;;;9.20;89.20;;;;;;4996981;28;20045;-78
2021/03/11 02:56:09;;;;;;;28.20;20.85;;;9.30;89.40;;;;;;4995041;28;20084;-76
2021/03/11 02:58:38;;;;;;;26.70;19.77;;;9.30;89.20;;;;;;4997475;28;20042;-74
2021/03/11 03:01:06;;;;;;;27.17;20.65;;;9.40;88.90;;;;;;4995554;28;20030;-73
2021/03/11 03:03:33;;;;;;;30.15;21.73;;;9.40;88.80;;;;;;4993462;28;20042;-74
2021/03/11 03:06:00;;;;;;;27.35;20.42;;;9.40;88.60;;;;;;4994619;28;20057;-73
2021/03/11 03:08:27;;;;;;;26.00;19.33;;;9.40;88.40;;;;;;4991912;28;20038;-75
2021/03/11 03:10:53;;;;;;;29.58;22.55;;;9.40;88.30;;;;;;4993061;28;20026;-74
2021/03/11 03:13:20;;;;;;;31.08;23.15;;;9.50;88.30;;;;;;4993387;28;20026;-76
2021/03/11 03:15:46;;;;;;;28.80;23.00;;;9.50;88.20;;;;;;4997542;28;20461;-73
2021/03/11 03:18:15;;;;;;;31.05;26.60;;;9.60;88.10;;;;;;4996032;28;20038;-73
2021/03/11 03:20:42;;;;;;;27.67;19.80;;;9.60;88.00;;;;;;4997453;28;20034;-74
2021/03/11 03:23:08;;;;;;;24.35;18.80;;;9.60;87.90;;;;;;4992222;28;20561;-78
2021/03/11 03:25:34;;;;;;;22.67;18.02;;;9.60;87.80;;;;;;4999849;28;20109;-77
2021/03/11 03:28:00;;;;;;;26.75;18.10;;;9.60;87.80;;;;;;5000133;28;20049;-76
2021/03/11 03:30:26;;;;;;;24.05;18.65;;;9.60;87.80;;;;;;5004614;28;20038;-79
2021/03/11 03:32:52;;;;;;;22.73;18.27;;;9.70;87.80;;;;;;4997092;28;20022;-74
2021/03/11 03:35:21;;;;;;;23.38;17.75;;;9.70;87.80;;;;;;4998524;28;20073;-74
2021/03/11 03:37:48;;;;;;;23.48;17.30;;;9.70;87.90;;;;;;5000531;28;20034;-72
2021/03/11 03:40:14;;;;;;;23.35;17.17;;;9.70;87.90;;;;;;5000600;28;20033;-73
2021/03/11 03:42:47;;;;;;;23.05;17.05;;;9.70;88.00;;;;;;4999490;28;20349;-74
2021/03/11 03:45:20;;;;;;;22.13;17.08;;;9.70;87.80;;;;;;5000278;28;20470;-74
2021/03/11 03:47:48;;;;;;;21.42;16.40;;;9.80;87.90;;;;;;5001827;28;20105;-74
2021/03/11 03:50:16;;;;;;;21.73;15.20;;;9.70;87.80;;;;;;4998146;28;20612;-73
2021/03/11 03:52:42;;;;;;;19.77;15.85;;;9.80;87.80;;;;;;5000862;28;20485;-78
2021/03/11 03:55:11;;;;;;;20.63;15.57;;;9.80;87.80;;;;;;5013066;28;20346;-79
2021/03/11 03:57:41;;;;;;;19.50;15.10;;;9.80;87.80;;;;;;4997659;28;20041;-77
2021/03/11 04:00:08;;;;;;;19.70;15.05;;;9.90;87.70;;;;;;4993311;28;20264;-77
2021/03/11 04:02:34;;;;;;;19.80;14.40;;;9.90;87.50;;;;;;4996640;28;20045;-78
2021/03/11 04:05:02;;;;;;;17.95;14.68;;;9.90;87.60;;;;;;4998710;28;20026;-74
2021/03/11 04:07:29;;;;;;;18.23;14.27;;;9.90;87.60;;;;;;4996782;28;20044;-78
2021/03/11 04:09:56;;;;;;;19.33;13.45;;;10.00;87.40;;;;;;4999730;28;20109;-77
2021/03/11 04:12:22;;;;;;;18.35;13.77;;;10.00;87.30;;;;;;4999331;28;20561;-80
2021/03/11 04:14:49;;;;;;;17.50;12.80;;;10.10;87.20;;;;;;4997837;28;20092;-78
2021/03/11 04:17:15;;;;;;;17.02;12.27;;;10.10;87.10;;;;;;4995035;28;20046;-73
2021/03/11 04:19:42;;;;;;;16.55;11.38;;;10.10;87.00;;;;;;5010348;28;20029;-74
2021/03/11 04:22:08;;;;;;;15.38;10.45;;;10.10;87.00;;;;;;5004299;28;20048;-73
2021/03/11 04:24:36;;;;;;;15.52;11.55;;;10.20;87.00;;;;;;4999474;28;20381;-73
2021/03/11 04:27:05;;;;;;;15.05;11.02;;;10.20;86.90;;;;;;4999805;28;20109;-74
2021/03/11 04:29:31;;;;;;;16.55;11.13;;;10.20;86.70;;;;;;4996537;28;21404;-74
2021/03/11 04:31:57;;;;;;;14.38;10.18;;;10.20;86.70;;;;;;4998758;28;20073;-77
2021/03/11 04:34:23;;;;;;;14.32;10.70;;;10.30;86.60;;;;;;5014238;28;20109;-74
2021/03/11 04:36:50;;;;;;;15.07;10.73;;;10.30;86.60;;;;;;4998904;28;20472;-74
2021/03/11 04:39:18;;;;;;;15.82;10.35;;;10.20;86.80;;;;;;4998322;28;20038;-74
2021/03/11 04:41:44;;;;;;;15.88;10.52;;;10.30;86.90;;;;;;5002661;28;20083;-75
2021/03/11 04:44:10;;;;;;;15.00;10.45;;;10.30;87.10;;;;;;5004859;28;20096;-74
2021/03/11 04:46:38;;;;;;;15.43;10.55;;;10.30;87.40;;;;;;5016703;28;20419;-75
2021/03/11 04:49:04;;;;;;;16.15;10.43;;;10.20;88.20;;;;;;5012212;28;20034;-73
2021/03/11 04:51:30;;;;;;;14.80;11.02;;;10.20;88.70;;;;;;5010436;28;20033;-74
2021/03/11 04:53:59;;;;;;;16.77;11.23;;;10.10;88.90;;;;;;5000658;28;20034;-73
2021/03/11 04:56:26;;;;;;;16.65;11.00;;;10.10;89.20;;;;;;4996233;28;20125;-74
2021/03/11 04:58:54;;;;;;;17.42;10.75;;;10.10;89.20;;;;;;4998147;28;20037;-75
2021/03/11 05:01:25;;;;;;;17.52;11.27;;;10.10;89.40;;;;;;4994558;28;20054;-74
2021/03/11 05:03:52;;;;;;;17.80;11.15;;;10.00;89.40;;;;;;4999036;28;20026;-74
2021/03/11 05:06:18;;;;;;;16.10;10.88;;;10.00;89.50;;;;;;4998077;28;20026;-76
2021/03/11 05:08:44;;;;;;;15.35;10.45;;;10.00;89.60;;;;;;4997711;28;20034;-76
2021/03/11 05:11:14;;;;;;;17.08;10.65;;;9.90;89.70;;;;;;4995805;28;20112;-74
2021/03/11 05:13:41;;;;;;;17.23;9.65;;;9.90;89.50;;;;;;4999190;28;20053;-75
2021/03/11 05:16:07;;;;;;;16.23;9.75;;;9.90;89.40;;;;;;4997805;28;20034;-74
2021/03/11 05:18:32;;;;;;;16.48;9.93;;;9.90;89.30;;;;;;4993610;28;20042;-74
2021/03/11 05:20:58;;;;;;;15.63;9.52;;;10.00;89.00;;;;;;4994983;28;20140;-73
2021/03/11 05:23:24;;;;;;;13.68;8.68;;;10.10;88.70;;;;;;4995613;28;20099;-73
2021/03/11 05:25:52;;;;;;;12.38;9.00;;;10.10;88.40;;;;;;4995406;28;20318;-72
2021/03/11 05:28:19;;;;;;;12.77;8.02;;;10.10;88.20;;;;;;4995370;28;20111;-78
2021/03/11 05:30:45;;;;;;;10.93;6.85;;;10.10;87.90;;;;;;4997898;28;20152;-74
2021/03/11 05:33:10;;;;;;;12.68;6.78;;;10.30;87.30;;;;;;4996488;28;20029;-73
2021/03/11 05:35:39;;;;;;;12.98;5.70;;;10.40;86.50;;;;;;5002496;28;20030;-75
2021/03/11 05:38:05;;;;;;;12.20;5.30;;;10.50;85.80;;;;;;5005708;28;20385;-73
2021/03/11 05:40:31;;;;;;;7.25;3.65;;;10.60;85.10;;;;;;4996217;28;20040;-73
2021/03/11 05:42:59;;;;;;;9.45;3.30;;;10.70;84.50;;;;;;4993668;28;20091;-73
2021/03/11 05:45:26;;;;;;;12.60;3.10;;;10.80;83.90;;;;;;4992660;28;20038;-78
2021/03/11 05:47:52;;;;;;;8.07;2.92;;;10.80;83.70;;;;;;4995697;28;20408;-73
2021/03/11 05:50:18;;;;;;;9.95;2.75;;;10.80;83.50;;;;;;4997045;28;20553;-73
2021/03/11 05:52:45;;;;;;;9.70;2.72;;;10.80;83.20;;;;;;4994357;28;20580;-75
2021/03/11 05:55:11;;;;;;;8.82;3.03;;;10.90;82.80;;;;;;4995641;28;20037;-78
2021/03/11 05:57:41;;;;;;;7.57;2.80;;;10.90;82.50;;;;;;5009239;28;20066;-74
2021/03/11 06:00:18;;;;;;;12.05;4.13;;;10.90;82.80;;;;;;4994497;28;20048;-77
2021/03/11 06:02:54;;;;;;;11.93;3.05;;;10.80;82.90;;;;;;4996010;28;20037;-77
2021/03/11 06:05:21;;;;;;;13.50;3.30;;;10.70;82.90;;;;;;5000164;28;20021;-73
2021/03/11 06:07:48;;;;;;;9.75;2.75;;;10.60;82.70;;;;;;5005433;28;20079;-74
2021/03/11 06:10:19;;;;;;;11.52;2.70;;;10.60;82.70;;;;;;5005505;28;20038;-79
2021/03/11 06:12:47;;;;;;;12.68;3.78;;;10.60;82.40;;;;;;4995187;28;20048;-74
2021/03/11 06:15:32;;;;;;;13.95;3.25;;;10.60;82.10;;;;;;4995556;28;20033;-77
2021/03/11 06:17:59;;;;;;;16.15;2.88;;;10.60;82.00;;;;;;5010434;28;20046;-75
2021/03/11 06:20:25;;;;;;;18.70;3.85;;;10.60;82.00;;;;;;4995355;28;20069;-81
2021/03/11 06:22:52;;;;;;;14.55;3.03;;;10.50;82.10;;;;;;5010872;28;20381;-76
2021/03/11 06:25:19;;;;;;;14.38;3.33;;;10.60;82.20;;;;;;4987354;28;20052;-76
2021/03/11 06:27:45;;;;;;;14.18;3.67;;;10.60;82.30;;;;;;4995187;28;20112;-77
2021/03/11 06:30:35;;;;;;;16.60;4.40;;;10.60;82.40;;;;;;5000615;28;20782;-75
2021/03/11 06:33:04;;;;;;;11.30;3.08;;;10.60;82.50;;;;;;5019033;28;20026;-74
2021/03/11 06:35:30;;;;;;;14.98;3.55;;;10.70;82.60;;;;;;5002241;28;20026;-71
2021/03/11 06:37:56;;;;;;;19.55;4.20;;;10.70;82.70;;;;;;5010915;28;20436;-70
2021/03/11 06:40:27;;;;;;;13.88;3.55;;;10.80;82.30;;;;;;4998570;28;20443;-71
2021/03/11 06:43:07;;;;;;;16.30;3.70;;;10.90;81.90;;;;;;4997117;28;20037;-70
2021/03/11 06:45:33;;;;;;;11.88;3.60;;;11.00;81.60;;;;;;4993288;28;20034;-70
2021/03/11 06:48:18;;;;;;;20.40;4.10;;;11.10;80.70;;;;;;4991314;28;20161;-70
2021/03/11 06:50:43;;;;;;;20.92;4.57;;;11.10;80.70;;;;;;4996265;28;20087;-70
2021/03/11 06:53:09;;;;;;;24.08;5.38;;;11.20;79.80;;;;;;4992145;28;20458;-70
2021/03/11 06:55:35;;;;;;;18.10;4.53;;;11.20;79.60;;;;;;4997062;28;20507;-68
2021/03/11 06:58:18;;;;;;;18.73;4.85;;;11.30;78.90;;;;;;4993278;28;20464;-70
2021/03/11 07:00:45;;;;;;;24.25;5.55;;;11.40;77.60;;;;;;4996976;28;20044;-70
2021/03/11 07:03:11;;;;;;;25.35;5.47;;;11.40;76.40;;;;;;4996521;28;20126;-70
2021/03/11 07:05:42;;;;;;;23.70;6.03;;;11.50;76.20;;;;;;4997152;28;20049;-72
2021/03/11 07:08:11;;;;;;;32.10;6.78;;;11.50;75.20;;;;;;4994261;28;20730;-69
2021/03/11 07:10:37;;;;;;;27.42;5.90;;;11.50;73.80;;;;;;5014192;28;20037;-72
2021/03/11 07:13:04;;;;;;;28.92;6.75;;;11.60;73.80;;;;;;4997662;28;20056;-69
2021/03/11 07:15:31;;;;;;;34.47;6.82;;;11.60;72.90;;;;;;5000726;28;20035;-69
2021/03/11 07:17:58;;;;;;;27.80;6.50;;;11.60;73.00;;;;;;4999791;28;20041;-70
2021/03/11 07:20:25;;;;;;;31.77;7.00;;;11.60;72.40;;;;;;4997147;28;20030;-69
2021/03/11 07:23:21;;;;;;;33.83;7.72;;;11.60;72.50;;;;;;4995195;28;20369;-71
2021/03/11 07:25:48;;;;;;;31.90;7.32;;;11.60;73.10;;;;;;4984018;28;20030;-73
2021/03/11 07:28:28;;;;;;;33.25;7.95;;;11.60;72.90;;;;;;4995874;28;20038;-69
2021/03/11 07:31:00;;;;;;;33.85;8.32;;;11.60;72.60;;;;;;4995519;28;20038;-69
2021/03/11 07:33:29;;;;;;;40.38;8.93;;;11.70;71.90;;;;;;4992859;28;20374;-73
2021/03/11 07:35:57;;;;;;;43.92;9.02;;;11.70;72.40;;;;;;4996427;28;20053;-73
2021/03/11 07:38:28;;;;;;;32.47;7.68;;;11.60;72.30;;;;;;4999422;28;20038;-69
2021/03/11 07:40:57;;;;;;;35.72;9.23;;;11.70;72.10;;;;;;4997293;28;20069;-69
2021/03/11 07:43:24;;;;;;;37.28;7.93;;;11.70;72.30;;;;;;4995044;28;20393;-69
2021/03/11 07:45:50;;;;;;;41.25;9.23;;;11.60;71.70;;;;;;4997329;28;20033;-69
2021/03/11 07:48:16;;;;;;;32.45;8.02;;;11.70;71.40;;;;;;4997447;28;20092;-69
2021/03/11 07:50:45;;;;;;;42.03;8.48;;;11.70;71.10;;;;;;5011903;28;20481;-69
2021/03/11 07:53:11;;;;;;;35.53;7.70;;;11.70;71.10;;;;;;4992568;28;20394;-70
2021/03/11 07:55:38;;;;;;;34.78;7.85;;;11.70;71.20;;;;;;5011134;28;20034;-70
2021/03/11 07:58:13;;;;;;;40.60;8.48;;;11.70;71.10;;;;;;4997366;28;20045;-70
2021/03/11 08:00:39;;;;;;;40.60;8.38;;;11.70;69.60;;;;;;4993211;28;20862;-71
2021/03/11 08:03:15;;;;;;;35.78;7.45;;;11.80;70.00;;;;;;4996224;28;20424;-70
2021/03/11 08:05:41;;;;;;;34.92;7.72;;;11.80;70.10;;;;;;4995848;28;20034;-73
2021/03/11 08:08:20;;;;;;;40.53;8.65;;;11.80;70.40;;;;;;4995633;28;20201;-70
2021/03/11 08:10:52;;;;;;;36.45;8.05;;;11.80;70.60;;;;;;4999875;28;20022;-71
2021/03/11 08:13:41;;;;;;;39.95;7.65;;;11.80;70.50;;;;;;4994233;28;20057;-69
2021/03/11 08:16:13;;;;;;;38.60;8.13;;;11.80;70.20;;;;;;4996827;28;20437;-69
2021/03/11 08:18:46;;;;;;;39.13;7.82;;;11.80;70.70;;;;;;4994181;28;20045;-70
2021/03/11 08:21:23;;;;;;;36.88;7.47;;;11.90;70.70;;;;;;4994325;28;20031;-71
2021/03/11 08:23:53;;;;;;;41.70;8.85;;;12.00;70.50;;;;;;4994512;28;20044;-70
2021/03/11 08:26:44;;;;;;;40.03;9.45;;;12.10;70.30;;;;;;5005753;28;20045;-70
2021/03/11 08:29:17;;;;;;;37.97;7.80;;;12.10;69.60;;;;;;5000389;28;20033;-75
2021/03/11 08:31:43;;;;;;;35.30;7.63;;;12.10;68.80;;;;;;5009444;28;20048;-71
2021/03/11 08:34:08;;;;;;;34.08;8.48;;;12.20;68.90;;;;;;5012020;28;20121;-73
2021/03/11 08:36:37;;;;;;;29.67;7.28;;;12.10;67.80;;;;;;5024261;28;20123;-72
2021/03/11 08:39:05;;;;;;;32.70;8.50;;;12.10;68.00;;;;;;4994617;28;20050;-74
2021/03/11 08:41:34;;;;;;;37.95;7.47;;;12.10;67.50;;;;;;5001064;28;20038;-71
2021/03/11 08:44:03;;;;;;;31.13;7.57;;;12.40;66.90;;;;;;5012196;28;20051;-71
2021/03/11 08:46:50;;;;;;;33.22;7.70;;;12.50;65.70;;;;;;5005532;28;20113;-73
2021/03/11 08:49:43;;;;;;;36.45;8.02;;;12.60;65.80;;;;;;5010777;28;20030;-70
2021/03/11 08:52:42;;;;;;;35.95;7.05;;;12.60;64.40;;;;;;5001052;28;20033;-71
2021/03/11 08:55:34;;;;;;;32.00;6.78;;;12.60;63.60;;;;;;5001757;28;20036;-70
2021/03/11 08:58:00;;;;;;;33.85;8.10;;;12.60;64.00;;;;;;5007605;28;20049;-70
2021/03/11 09:00:54;;;;;;;33.13;7.88;;;12.60;64.40;;;;;;5002132;28;20461;-73
2021/03/11 09:03:49;;;;;;;31.40;7.30;;;12.50;64.30;;;;;;5003709;28;21698;-71
2021/03/11 09:06:16;;;;;;;38.30;9.25;;;12.50;63.10;;;;;;5012008;28;20152;-73
2021/03/11 09:08:52;;;;;;;34.38;7.65;;;12.70;62.80;;;;;;5002996;28;20364;-72
2021/03/11 09:11:23;;;;;;;36.08;7.13;;;12.90;62.40;;;;;;5021909;28;20472;-71
2021/03/11 09:13:51;;;;;;;28.48;7.07;;;13.00;61.10;;;;;;4984072;28;20034;-72
2021/03/11 09:16:23;;;;;;;29.52;6.43;;;13.00;61.30;;;;;;4995042;28;20129;-74
2021/03/11 09:18:56;;;;;;;30.40;7.65;;;13.10;60.60;;;;;;5002162;28;20041;-72
2021/03/11 09:21:30;;;;;;;45.10;8.15;;;13.20;60.80;;;;;;5002146;28;20025;-75
2021/03/11 09:23:56;;;;;;;37.47;7.43;;;13.20;61.00;;;;;;4990901;28;20026;-72
2021/03/11 09:26:29;;;;;;;34.75;7.50;;;13.30;60.20;;;;;;4993470;28;20270;-72
2021/03/11 09:28:58;;;;;;;29.73;6.63;;;13.30;60.30;;;;;;4999116;28;20456;-73
2021/03/11 09:31:28;;;;;;;36.35;7.70;;;13.40;60.30;;;;;;4990016;28;20090;-71
2021/03/11 09:33:55;;;;;;;34.05;7.35;;;13.50;59.70;;;;;;4997157;28;20205;-76
2021/03/11 09:36:21;;;;;;;29.00;7.03;;;13.30;59.60;;;;;;4960655;28;20700;-71
2021/03/11 09:38:48;;;;;;;31.48;6.78;;;13.10;59.90;;;;;;4987100;28;20040;-74
2021/03/11 09:41:14;;;;;;;24.70;5.78;;;13.20;59.70;;;;;;4986914;28;20135;-73
2021/03/11 09:43:42;;;;;;;28.23;6.97;;;13.00;59.40;;;;;;4993668;28;20057;-72
2021/03/11 09:46:09;;;;;;;30.98;5.85;;;13.20;60.00;;;;;;4996251;28;20018;-74
2021/03/11 09:48:40;;;;;;;23.27;5.45;;;13.50;59.00;;;;;;4998367;28;20092;-71
2021/03/11 09:51:32;;;;;;;25.33;5.75;;;13.60;57.60;;;;;;4980888;28;20065;-72
2021/03/11 09:54:05;;;;;;;29.98;5.25;;;13.80;56.60;;;;;;4994541;28;20034;-71
2021/03/11 09:56:42;;;;;;;25.58;5.38;;;13.70;57.70;;;;;;4990264;28;20042;-71
2021/03/11 09:59:11;;;;;;;20.15;4.97;;;13.40;57.60;;;;;;4990737;28;20121;-73
2021/03/11 10:01:38;;;;;;;21.10;4.78;;;13.40;59.00;;;;;;4994772;28;20403;-72
2021/03/11 10:04:17;;;;;;;18.67;4.15;;;13.30;58.80;;;;;;4992334;28;20049;-73
2021/03/11 10:06:52;;;;;;;17.27;3.40;;;13.30;58.60;;;;;;4989559;28;20092;-74
2021/03/11 10:09:19;;;;;;;21.55;3.55;;;13.00;59.10;;;;;;4991616;28;20056;-73
2021/03/11 10:11:50;;;;;;;16.52;3.90;;;13.00;60.00;;;;;;5020903;28;20810;-72
2021/03/11 10:14:23;;;;;;;18.98;3.60;;;13.20;59.20;;;;;;5017295;28;20029;-70
2021/03/11 10:16:57;;;;;;;18.73;4.43;;;13.40;58.90;;;;;;5006506;28;20053;-72
2021/03/11 10:19:34;;;;;;;25.90;4.57;;;13.60;58.60;;;;;;4998450;28;20439;-72
2021/03/11 10:22:05;;;;;;;20.38;3.67;;;13.40;59.60;;;;;;5007693;28;20057;-72
2021/03/11 10:24:38;;;;;;;24.17;5.15;;;13.60;59.60;;;;;;4989801;28;20031;-75
2021/03/11 10:27:16;;;;;;;21.20;5.03;;;13.70;59.70;;;;;;5000284;28;20026;-72
2021/03/11 10:29:42;;;;;;;21.08;4.85;;;13.60;59.90;;;;;;5009642;28;20042;-71
2021/03/11 10:32:07;;;;;;;18.60;4.85;;;13.50;60.30;;;;;;5001975;28;20030;-72
2021/03/11 10:34:49;;;;;;;22.20;5.25;;;13.70;60.30;;;;;;5004320;28;20033;-72
2021/03/11 10:37:35;;;;;;;24.75;6.07;;;13.40;59.80;;;;;;5008886;28;20026;-73
2021/03/11 10:40:08;;;;;;;28.67;5.82;;;13.20;60.40;;;;;;5013647;28;20465;-71
2021/03/11 10:42:53;;;;;;;27.02;6.22;;;13.10;61.00;;;;;;5002491;28;20022;-70
2021/03/11 10:45:22;;;;;;;;;;;13.10;60.40;;;;;;5012589;28;20033;-71
2021/03/11 10:47:59;;;;;;;23.65;4.85;;;13.10;60.00;;;;;;5013021;28;19988;-69
2021/03/11 10:50:25;;;;;;;28.55;5.22;;;13.10;60.30;;;;;;4996945;28;20057;-69
2021/03/11 10:52:53;;;;;;;23.25;5.13;;;13.30;60.60;;;;;;5003810;28;20065;-76
2021/03/11 10:55:27;;;;;;;26.35;5.80;;;13.30;60.30;;;;;;5014216;28;20037;-72
2021/03/11 10:57:52;;;;;;;35.50;5.75;;;13.60;60.70;;;;;;5017168;28;20045;-71
2021/03/11 11:00:33;;;;;;;25.08;5.00;;;13.90;58.40;;;;;;5012008;28;20361;-71
2021/03/11 11:03:01;;;;;;;25.45;5.05;;;14.10;57.90;;;;;;5006588;28;20045;-71
2021/03/11 11:05:28;;;;;;;32.38;5.82;;;13.70;58.90;;;;;;4995771;28;20042;-72
2021/03/11 11:07:53;;;;;;;23.38;4.57;;;14.10;57.90;;;;;;4999560;28;20053;-74
2021/03/11 11:10:22;;;;;;;29.30;5.28;;;14.20;56.80;;;;;;5009494;28;20022;-72
2021/03/11 11:12:48;;;;;;;23.80;5.55;;;13.90;57.40;;;;;;5005161;28;20034;-73
2021/03/11 11:15:16;;;;;;;29.58;5.32;;;13.80;57.80;;;;;;5004595;28;20034;-71
2021/03/11 11:17:42;;;;;;;24.48;5.28;;;13.60;58.50;;;;;;5013879;28;20125;-73
2021/03/11 11:20:10;;;;;;;22.45;5.20;;;13.70;59.10;;;;;;5002030;28;20038;-72
2021/03/11 11:22:36;;;;;;;25.05;5.40;;;13.70;58.50;;;;;;5006225;28;20040;-72
2021/03/11 11:25:05;;;;;;;26.63;5.25;;;13.20;59.00;;;;;;5020078;28;20030;-72
2021/03/11 11:27:31;;;;;;;21.85;4.78;;;13.00;60.10;;;;;;5022558;28;20030;-72
2021/03/11 11:29:57;;;;;;;23.40;5.10;;;13.10;60.10;;;;;;4998764;28;20026;-72
2021/03/11 11:32:23;;;;;;;25.10;5.57;;;13.20;59.80;;;;;;5006041;28;20482;-71
2021/03/11 11:34:51;;;;;;;26.05;5.93;;;13.30;59.50;;;;;;5012211;28;20036;-73
2021/03/11 11:37:17;;;;;;;25.55;4.53;;;13.20;60.20;;;;;;5006565;28;20392;-73
2021/03/11 11:39:44;;;;;;;18.35;4.32;;;13.30;59.70;;;;;;5006881;28;20029;-74
2021/03/11 11:42:10;;;;;;;22.33;4.93;;;13.60;58.80;;;;;;5022699;28;20045;-72
2021/03/11 11:44:38;;;;;;;24.23;5.28;;;13.30;58.30;;;;;;5007629;28;20026;-72
2021/03/11 11:47:03;;;;;;;19.98;4.75;;;13.10;59.40;;;;;;5013482;28;20093;-72
2021/03/11 11:49:29;;;;;;;23.92;5.47;;;12.90;60.40;;;;;;4995333;28;20440;-72
2021/03/11 11:51:54;;;;;;;23.02;5.18;;;12.90;60.60;;;;;;5008036;28;20032;-73
2021/03/11 11:54:20;;;;;;;23.02;5.07;;;12.80;62.00;;;;;;5003713;28;20037;-77
2021/03/11 11:56:46;;;;;;;28.98;5.20;;;13.10;61.50;;;;;;5001301;28;20480;-72
2021/03/11 11:59:12;;;;;;;19.08;5.22;;;13.10;61.50;;;;;;5004368;28;20041;-73
2021/03/11 12:01:38;;;;;;;21.15;5.10;;;13.10;61.10;;;;;;5008421;28;20509;-72
2021/03/11 12:04:03;;;;;;;27.80;5.07;;;13.10;60.90;;;;;;5006703;28;20034;-74
2021/03/11 12:06:29;;;;;;;31.33;5.75;;;13.20;61.00;;;;;;5005472;28;20046;-73
2021/03/11 12:08:55;;;;;;;18.45;4.30;;;13.50;61.00;;;;;;5010307;28;20048;-75
2021/03/11 12:11:20;;;;;;;28.02;5.72;;;13.40;60.00;;;;;;4999021;28;20119;-75
2021/03/11 12:13:46;;;;;;;24.38;5.55;;;13.60;60.00;;;;;;5005906;28;20034;-73
2021/03/11 12:16:11;;;;;;;26.60;5.28;;;13.80;59.80;;;;;;5011238;28;20063;-73
2021/03/11 12:18:37;;;;;;;21.95;4.85;;;14.00;58.80;;;;;;5000615;28;20062;-72
2021/03/11 12:21:03;;;;;;;20.95;4.82;;;13.60;58.40;;;;;;5001518;28;20033;-76
2021/03/11 12:23:29;;;;;;;23.65;4.57;;;13.60;59.00;;;;;;5004933;28;20096;-75
2021/03/11 12:25:57;;;;;;;22.02;4.47;;;13.30;59.40;;;;;;5004606;28;20465;-74
2021/03/11 12:28:23;;;;;;;18.42;4.40;;;13.10;59.10;;;;;;5003623;28;20033;-76
2021/03/11 12:30:49;;;;;;;19.42;4.35;;;13.20;58.70;;;;;;5000089;28;20022;-73
2021/03/11 12:33:15;;;;;;;20.33;4.18;;;13.30;58.60;;;;;;5001889;28;20033;-71
2021/03/11 12:35:40;;;;;;;22.65;4.47;;;13.40;57.60;;;;;;5016487;28;20088;-71
2021/03/11 12:38:06;;;;;;;20.33;4.05;;;13.50;58.30;;;;;;5007451;28;20049;-72
2021/03/11 12:40:32;;;;;;;22.55;4.15;;;13.70;58.30;;;;;;5001088;28;20056;-73
2021/03/11 12:42:58;;;;;;;19.60;3.65;;;14.30;56.50;;;;;;4993591;28;20089;-72
2021/03/11 12:45:24;;;;;;;21.35;4.78;;;14.40;54.60;;;;;;5006627;28;20034;-73